Time;durP1;ratioP1;P1;durP2;ratioP2;P2;SDS_P1;SDS_P2;PMS_P1;PMS_P2;Temp;Humidity;BMP_temperature;BMP_pressure;BME280_temperature;BME280_humidity;BME280_pressure;Samples;Min_cycle;Max_cycle;Signal;HPM_P1;HPM_P2
2021/12/18 00:01:33;;;;;;;17.52;11.68;;;;;;;9.13;79.72;103839.19;3581005;40;20110;-66
2021/12/18 00:03:59;;;;;;;17.13;13.05;;;;;;;8.93;79.84;103804.47;3580698;40;20397;-66
2021/12/18 00:06:27;;;;;;;18.10;12.48;;;;;;;9.12;79.98;103832.06;3581257;40;20053;-66
2021/12/18 00:08:55;;;;;;;18.40;13.43;;;;;;;9.15;79.75;103837.41;3580218;40;20044;-66
2021/12/18 00:11:20;;;;;;;20.42;13.45;;;;;;;9.15;79.73;103834.72;3582675;40;20052;-66
2021/12/18 00:13:46;;;;;;;19.15;13.23;;;;;;;9.13;80.48;103834.72;3580452;40;20052;-66
2021/12/18 00:16:12;;;;;;;18.27;12.40;;;;;;;9.13;80.84;103825.78;3582623;40;20100;-66
2021/12/18 00:18:37;;;;;;;17.52;12.98;;;;;;;9.02;80.22;103802.59;3579501;40;20057;-65
2021/12/18 00:21:04;;;;;;;18.38;13.25;;;;;;;9.20;79.90;103835.59;3581258;40;20067;-67
2021/12/18 00:23:30;;;;;;;18.38;12.82;;;;;;;9.11;80.34;103816.88;3581641;40;20298;-65
2021/12/18 00:25:57;;;;;;;19.85;13.82;;;;;;;9.19;80.23;103828.41;3577332;40;20088;-66
2021/12/18 00:28:22;;;;;;;19.63;14.63;;;;;;;9.14;80.48;103820.41;3580686;40;20121;-66
2021/12/18 00:30:48;;;;;;;19.60;13.68;;;;;;;9.18;81.07;103821.28;3581614;40;20059;-65
2021/12/18 00:33:14;;;;;;;21.20;14.07;;;;;;;9.15;81.45;103816.81;3582057;40;20316;-66
2021/12/18 00:35:40;;;;;;;20.50;13.73;;;;;;;9.17;81.40;103811.47;3578918;40;20091;-66
2021/12/18 00:38:08;;;;;;;21.15;14.32;;;;;;;9.13;80.65;103812.34;3580974;40;20068;-66
2021/12/18 00:40:45;;;;;;;23.95;14.18;;;;;;;9.15;81.19;103818.63;3577778;40;20062;-66
2021/12/18 00:43:27;;;;;;;18.08;12.30;;;;;;;9.14;81.01;103814.16;3568814;40;20435;-65
2021/12/18 00:45:53;;;;;;;22.30;13.07;;;;;;;9.14;81.51;103819.53;3583714;40;20121;-65
2021/12/18 00:48:20;;;;;;;16.50;11.55;;;;;;;9.12;81.86;103807.91;3581555;40;20471;-65
2021/12/18 00:50:46;;;;;;;19.85;12.48;;;;;;;9.10;81.79;103804.31;3580685;40;20052;-66
2021/12/18 00:53:12;;;;;;;18.35;12.30;;;;;;;9.06;81.12;103804.34;3582015;40;20058;-66
2021/12/18 00:55:38;;;;;;;18.63;11.98;;;;;;;9.02;81.15;103797.25;3581499;40;20076;-66
2021/12/18 00:58:04;;;;;;;17.80;10.70;;;;;;;9.00;81.66;103798.16;3572701;40;20240;-65
2021/12/18 01:00:33;;;;;;;17.88;10.93;;;;;;;9.04;81.61;103811.53;3572556;40;20069;-63
2021/12/18 01:03:02;;;;;;;18.02;11.77;;;;;;;9.03;81.33;103800.81;3580408;40;20088;-66
2021/12/18 01:05:31;;;;;;;17.13;11.15;;;;;;;9.04;81.72;103807.97;3580656;40;20052;-65
2021/12/18 01:07:58;;;;;;;16.27;10.63;;;;;;;8.88;81.49;103783.06;3580227;40;20479;-65
2021/12/18 01:13:17;;;;;;;16.00;10.50;;;;;;;9.03;80.64;103798.13;3579960;40;20043;-66
2021/12/18 01:15:48;;;;;;;16.30;9.77;;;;;;;9.04;81.48;103802.63;3580504;40;20060;-64
2021/12/18 01:23:43;;;;;;;15.07;10.07;;;;;;;9.00;80.81;103796.34;3581396;40;20059;-64
2021/12/18 01:26:09;;;;;;;17.13;9.90;;;;;;;9.01;80.96;103792.78;3583476;40;20060;-64
2021/12/18 01:28:34;;;;;;;14.77;10.05;;;;;;;8.98;80.35;103786.56;3582557;40;20383;-64
2021/12/18 01:31:02;;;;;;;15.65;10.20;;;;;;;8.98;80.90;103795.50;3580698;40;20056;-64
2021/12/18 01:33:28;;;;;;;15.95;10.18;;;;;;;8.89;80.42;103774.09;3585906;40;20052;-64
2021/12/18 01:35:55;;;;;;;15.20;10.25;;;;;;;9.00;80.43;103790.09;3582474;40;20318;-64
2021/12/18 01:38:23;;;;;;;14.13;9.15;;;;;;;8.79;80.77;103762.53;3578201;40;20309;-64
2021/12/18 01:40:50;;;;;;;15.95;9.57;;;;;;;8.55;80.87;103718.00;3583153;40;20048;-64
2021/12/18 01:46:29;;;;;;;14.55;9.00;;;;;;;8.78;80.57;103776.84;3580212;40;20092;-64
2021/12/18 01:52:02;;;;;;;12.88;8.68;;;;;;;8.88;80.75;103801.81;3578986;40;20059;-66
2021/12/18 01:54:29;;;;;;;12.32;8.45;;;;;;;8.93;80.99;103810.72;3577537;40;20604;-63
2021/12/18 01:56:54;;;;;;;13.82;8.73;;;;;;;8.93;80.64;103809.84;3613945;23;20052;-65
2021/12/18 01:59:47;;;;;;;14.75;9.07;;;;;;;8.96;80.93;103809.81;3580593;40;20130;-65
2021/12/18 02:02:14;;;;;;;15.20;9.25;;;;;;;8.72;80.96;103771.53;3582160;40;20060;-65
2021/12/18 02:04:40;;;;;;;15.93;10.02;;;;;;;8.95;80.56;103818.78;3580764;40;20302;-65
2021/12/18 02:07:07;;;;;;;15.45;9.73;;;;;;;8.87;81.07;103800.03;3582875;40;20057;-65
2021/12/18 02:12:07;;;;;;;15.93;9.95;;;;;;;8.89;80.34;103806.28;3580514;40;20080;-65
2021/12/18 02:20:45;;;;;;;16.35;9.90;;;;;;;8.90;81.25;103816.09;3584014;40;20484;-65
2021/12/18 02:23:05;;;;;;;16.08;9.75;;;;;;;8.92;80.70;103803.59;3579988;40;20055;-65
2021/12/18 02:25:34;;;;;;;15.25;9.68;;;;;;;8.95;80.71;103802.69;3583712;40;20091;-64
2021/12/18 02:28:00;;;;;;;15.93;10.15;;;;;;;8.89;81.19;103795.56;3582132;40;20064;-65
2021/12/18 02:30:26;;;;;;;14.45;8.93;;;;;;;8.96;80.76;103805.34;3583700;40;20058;-65
2021/12/18 02:32:53;;;;;;;15.40;10.10;;;;;;;8.43;80.29;103715.41;3581271;40;20060;-65
2021/12/18 02:35:28;;;;;;;15.98;10.38;;;;;;;8.85;81.10;103791.13;3582981;40;20045;-65
2021/12/18 02:43:41;;;;;;;17.85;11.77;;;;;;;8.82;81.75;103788.47;3582607;40;20505;-62
2021/12/18 02:46:09;;;;;;;18.25;11.80;;;;;;;8.83;81.37;103790.22;3581684;40;20287;-62
2021/12/18 02:48:41;;;;;;;18.40;11.48;;;;;;;8.72;81.57;103775.97;3585475;40;20357;-62
2021/12/18 02:51:11;;;;;;;18.80;11.73;;;;;;;8.71;82.11;103766.16;3581942;40;20052;-63
2021/12/18 02:53:42;;;;;;;17.25;11.68;;;;;;;8.83;81.79;103785.75;3582566;40;20052;-65
2021/12/18 02:56:12;;;;;;;17.88;12.07;;;;;;;8.82;81.24;103785.78;3581804;40;20086;-65
2021/12/18 02:58:42;;;;;;;18.98;12.43;;;;;;;8.77;81.64;103772.38;3582550;40;20052;-65
2021/12/18 03:01:13;;;;;;;18.75;12.52;;;;;;;8.83;81.30;103779.50;3583085;40;20097;-65
2021/12/18 03:03:41;;;;;;;19.15;11.40;;;;;;;8.80;81.32;103772.34;3579758;40;20072;-63
2021/12/18 03:27:17;;;;;;;17.23;11.25;;;;;;;8.59;82.02;103730.50;3583542;40;20064;-63
2021/12/18 03:29:43;;;;;;;17.85;11.30;;;;;;;8.72;81.98;103751.84;3584490;40;20044;-63
2021/12/18 03:32:08;;;;;;;19.50;11.18;;;;;;;8.76;81.70;103765.25;3582989;40;20055;-63
2021/12/18 03:34:34;;;;;;;18.00;11.85;;;;;;;8.75;82.37;103765.25;3583817;40;20067;-62
2021/12/18 03:37:00;;;;;;;17.40;11.40;;;;;;;8.74;81.77;103760.78;3583881;40;20413;-62
2021/12/18 03:39:26;;;;;;;18.73;11.70;;;;;;;8.46;81.71;103718.06;3584708;40;20052;-63
2021/12/18 03:41:53;;;;;;;18.63;11.55;;;;;;;8.70;81.64;103761.72;3582723;40;20291;-63
2021/12/18 03:44:20;;;;;;;17.83;11.73;;;;;;;8.69;82.79;103765.28;3583653;40;20083;-63
2021/12/18 03:46:45;;;;;;;18.67;11.88;;;;;;;8.67;82.52;103761.75;3581421;40;20275;-66
2021/12/18 03:49:11;;;;;;;20.48;12.25;;;;;;;8.65;82.53;103758.16;3582990;40;20098;-62
2021/12/18 03:51:37;;;;;;;17.50;11.32;;;;;;;8.71;82.80;103782.25;3584832;40;20056;-63
2021/12/18 03:54:03;;;;;;;18.73;11.10;;;;;;;8.72;82.74;103778.66;3583468;40;20434;-63
2021/12/18 03:56:29;;;;;;;19.48;11.80;;;;;;;8.64;82.04;103759.06;3583980;40;20075;-64
2021/12/18 03:58:55;;;;;;;19.15;12.18;;;;;;;8.65;82.60;103764.41;3572568;40;20458;-63
2021/12/18 04:01:20;;;;;;;21.17;11.95;;;;;;;8.72;82.52;103767.94;3584219;40;20114;-63
2021/12/18 04:03:46;;;;;;;18.00;11.63;;;;;;;8.66;82.11;103774.25;3583609;40;20056;-63
2021/12/18 04:06:12;;;;;;;20.02;11.60;;;;;;;8.72;82.75;103774.22;3582594;40;20056;-63
2021/12/18 04:08:38;;;;;;;19.58;11.43;;;;;;;8.68;82.21;103771.56;3583216;40;20052;-63
2021/12/18 04:11:04;;;;;;;18.73;11.60;;;;;;;8.58;82.06;103766.25;3582287;40;20062;-63
2021/12/18 04:13:30;;;;;;;20.20;11.52;;;;;;;8.58;82.35;103766.25;3583386;40;20142;-63
2021/12/18 04:15:56;;;;;;;17.98;11.55;;;;;;;8.63;82.96;103768.91;3580841;40;20483;-63
2021/12/18 04:18:22;;;;;;;19.83;11.85;;;;;;;8.64;83.11;103777.84;3579982;40;20052;-65
2021/12/18 04:20:48;;;;;;;21.20;11.73;;;;;;;8.59;83.25;103767.13;3583358;40;20072;-65
2021/12/18 04:23:14;;;;;;;18.80;11.70;;;;;;;8.62;83.08;103769.78;3583736;40;20060;-65
2021/12/18 04:25:40;;;;;;;19.85;11.98;;;;;;;8.59;82.64;103772.50;3581146;40;20060;-65
2021/12/18 04:28:06;;;;;;;20.83;11.68;;;;;;;8.59;83.14;103772.50;3580574;40;20114;-65
2021/12/18 04:30:33;;;;;;;18.98;11.52;;;;;;;8.65;82.61;103776.94;3581614;40;20089;-66
2021/12/18 04:32:59;;;;;;;18.42;12.05;;;;;;;8.57;82.85;103759.13;3581722;40;20048;-65
2021/12/18 04:35:25;;;;;;;19.05;11.02;;;;;;;8.62;82.68;103766.22;3584558;40;20447;-65
2021/12/18 04:37:51;;;;;;;20.73;12.05;;;;;;;8.63;83.10;103765.31;3583547;40;20090;-66
2021/12/18 04:40:16;;;;;;;18.45;10.93;;;;;;;8.59;83.44;103770.72;3583369;40;20414;-65
2021/12/18 04:42:42;;;;;;;19.73;11.57;;;;;;;8.62;82.50;103767.09;3584363;40;20061;-65
2021/12/18 04:45:08;;;;;;;20.55;12.13;;;;;;;8.58;83.17;103765.38;3578825;40;20052;-65
2021/12/18 04:47:34;;;;;;;19.85;11.45;;;;;;;8.64;82.58;103772.47;3583605;40;20064;-65
2021/12/18 04:50:00;;;;;;;19.20;12.15;;;;;;;8.58;82.91;103782.34;3582981;40;20134;-65
2021/12/18 04:52:26;;;;;;;18.08;11.70;;;;;;;8.50;83.32;103759.13;3583898;40;20058;-65
2021/12/18 04:54:51;;;;;;;21.08;12.23;;;;;;;8.55;83.28;103777.00;3588914;40;20071;-65
2021/12/18 04:57:17;;;;;;;16.95;11.02;;;;;;;8.60;83.34;103785.91;3589788;40;20052;-65
2021/12/18 04:59:45;;;;;;;18.65;11.85;;;;;;;8.58;83.50;103785.00;3590214;40;20064;-65
2021/12/18 05:02:16;;;;;;;20.23;12.70;;;;;;;8.57;83.42;103785.94;3583134;40;20072;-65
2021/12/18 05:04:42;;;;;;;17.83;11.20;;;;;;;8.44;83.57;103756.53;3587298;40;20048;-65
2021/12/18 05:07:10;;;;;;;18.38;10.73;;;;;;;8.48;83.14;103772.56;3586077;40;20052;-65
2021/12/18 05:09:40;;;;;;;19.52;12.07;;;;;;;8.55;83.71;103790.41;3579347;40;20073;-65
2021/12/18 05:12:07;;;;;;;18.55;11.60;;;;;;;8.48;83.27;103783.28;3581519;40;20060;-65
2021/12/18 05:14:32;;;;;;;18.65;11.35;;;;;;;8.49;83.29;103787.75;3583525;40;20063;-65
2021/12/18 05:16:58;;;;;;;20.02;11.75;;;;;;;8.48;83.57;103790.44;3583501;40;20056;-65
2021/12/18 05:19:24;;;;;;;18.35;11.80;;;;;;;8.04;83.65;103714.69;3583663;40;20048;-64
2021/12/18 05:21:49;;;;;;;20.40;11.88;;;;;;;8.47;83.49;103799.38;3581572;40;20495;-65
2021/12/18 05:24:15;;;;;;;20.38;12.00;;;;;;;8.33;84.41;103769.94;3583224;40;20056;-65
2021/12/18 05:26:41;;;;;;;18.27;11.65;;;;;;;8.41;84.52;103784.22;3583426;40;20064;-64
2021/12/18 05:29:06;;;;;;;18.35;10.90;;;;;;;8.37;83.45;103788.69;3582056;40;20054;-64
2021/12/18 05:31:33;;;;;;;19.30;10.85;;;;;;;8.23;84.20;103763.72;3580689;40;20056;-64
2021/12/18 05:34:00;;;;;;;18.70;10.95;;;;;;;8.36;84.41;103791.34;3582238;40;20056;-64
2021/12/18 05:38:55;;;;;;;18.38;10.20;;;;;;;8.40;84.30;103794.94;3582070;40;20595;-67
2021/12/18 05:41:20;;;;;;;20.60;10.73;;;;;;;8.37;84.36;103796.72;3579332;40;20056;-65
2021/12/18 05:43:46;;;;;;;15.23;9.43;;;;;;;8.23;84.20;103769.09;3583266;40;20048;-64
2021/12/18 05:46:11;;;;;;;17.30;9.70;;;;;;;8.33;83.80;103784.22;3582896;40;20424;-64
2021/12/18 05:48:37;;;;;;;15.10;8.85;;;;;;;8.33;83.92;103780.66;3582962;40;20667;-64
2021/12/18 05:51:05;;;;;;;18.88;10.77;;;;;;;8.34;83.60;103786.03;3583215;40;20059;-64
2021/12/18 05:53:32;;;;;;;20.15;11.43;;;;;;;8.32;84.35;103781.56;3583080;40;20044;-64
2021/12/18 05:55:57;;;;;;;20.65;11.13;;;;;;;8.30;84.66;103781.56;3582199;40;20064;-64
2021/12/18 05:58:23;;;;;;;19.73;11.70;;;;;;;8.28;83.96;103788.72;3581834;40;20133;-64
2021/12/18 06:00:48;;;;;;;19.25;11.50;;;;;;;8.23;84.30;103773.56;3583861;40;20052;-64
2021/12/18 06:03:14;;;;;;;19.83;10.85;;;;;;;8.37;84.52;103796.72;3579449;40;20064;-65
2021/12/18 06:05:40;;;;;;;20.40;12.20;;;;;;;8.42;84.28;103793.16;3582540;40;20060;-64
2021/12/18 06:08:10;;;;;;;24.40;13.02;;;;;;;8.36;83.60;103791.34;3579844;40;20060;-65
2021/12/18 06:10:37;;;;;;;21.25;11.77;;;;;;;8.44;83.68;103799.41;3582963;40;20125;-64
2021/12/18 06:13:03;;;;;;;22.40;12.70;;;;;;;8.43;83.85;103798.50;3580528;40;20063;-65
2021/12/18 06:15:32;;;;;;;21.58;11.93;;;;;;;8.45;84.20;103795.81;3578539;40;20062;-64
2021/12/18 06:17:59;;;;;;;27.58;13.88;;;;;;;8.46;84.63;103795.81;3582115;40;20426;-65
2021/12/18 06:20:26;;;;;;;28.23;14.55;;;;;;;8.38;84.09;103789.59;3579115;40;20056;-65
2021/12/18 06:22:54;;;;;;;27.75;14.35;;;;;;;8.40;84.61;103787.78;3584933;40;20310;-65
2021/12/18 06:25:19;;;;;;;26.10;13.05;;;;;;;8.39;84.61;103791.38;3581878;40;20345;-64
2021/12/18 06:27:45;;;;;;;27.10;14.93;;;;;;;8.39;84.33;103796.75;3582943;40;20055;-64
2021/12/18 06:30:14;;;;;;;25.85;12.98;;;;;;;8.39;85.26;103788.69;3581115;40;20066;-65
2021/12/18 06:32:40;;;;;;;26.90;14.10;;;;;;;8.37;84.44;103798.50;3579718;40;20056;-64
2021/12/18 06:35:08;;;;;;;26.20;13.63;;;;;;;8.41;84.78;103794.97;3581863;40;20088;-64
2021/12/18 06:37:34;;;;;;;27.65;13.30;;;;;;;8.35;84.63;103786.91;3582684;40;20044;-64
2021/12/18 06:39:59;;;;;;;28.20;14.52;;;;;;;8.42;84.49;103796.72;3581084;40;20052;-64
2021/12/18 06:42:25;;;;;;;26.77;14.60;;;;;;;8.41;85.19;103800.31;3580268;40;20489;-64
2021/12/18 06:44:51;;;;;;;23.05;12.32;;;;;;;8.39;84.98;103791.38;3579187;40;20106;-64
2021/12/18 06:47:16;;;;;;;24.95;13.45;;;;;;;8.42;85.18;103791.38;3580641;40;20314;-64
2021/12/18 06:49:42;;;;;;;24.35;11.50;;;;;;;8.36;84.96;103781.53;3583186;40;20056;-64
2021/12/18 06:52:08;;;;;;;21.52;10.75;;;;;;;8.34;84.31;103777.06;3584110;40;20052;-64
2021/12/18 06:54:33;;;;;;;21.85;10.68;;;;;;;8.38;83.88;103786.94;3582353;40;20062;-64
2021/12/18 06:56:59;;;;;;;20.85;10.02;;;;;;;8.40;84.12;103786.91;3579924;40;20062;-65
2021/12/18 06:59:25;;;;;;;24.15;11.90;;;;;;;8.30;84.89;103770.84;3575321;40;20060;-64
2021/12/18 07:01:52;;;;;;;21.92;11.73;;;;;;;8.40;84.83;103790.47;3571839;40;20369;-64
2021/12/18 07:04:20;;;;;;;25.45;12.45;;;;;;;8.39;84.35;103775.31;3571238;40;20086;-64
2021/12/18 07:06:46;;;;;;;28.90;13.77;;;;;;;8.40;84.44;103782.44;3573220;40;20060;-64
2021/12/18 07:09:12;;;;;;;27.42;13.60;;;;;;;8.41;84.78;103784.22;3572699;40;20104;-65
2021/12/18 07:11:38;;;;;;;23.50;12.55;;;;;;;8.33;84.10;103768.13;3576575;40;20105;-64
2021/12/18 07:14:03;;;;;;;25.38;12.77;;;;;;;8.33;84.23;103780.66;3582176;40;20062;-64
2021/12/18 07:16:29;;;;;;;23.95;11.50;;;;;;;7.82;85.04;103686.22;3576071;40;20108;-64
2021/12/18 07:18:55;;;;;;;25.25;11.57;;;;;;;8.40;84.79;103779.75;3581677;40;20064;-64
2021/12/18 07:21:21;;;;;;;26.17;11.75;;;;;;;8.35;84.27;103778.88;3578882;40;20056;-64
2021/12/18 07:23:47;;;;;;;23.83;11.15;;;;;;;8.40;84.50;103782.44;3580651;40;20051;-64
2021/12/18 07:26:13;;;;;;;21.98;11.00;;;;;;;8.43;84.18;103793.13;3578757;40;20076;-64
2021/12/18 07:28:40;;;;;;;21.80;11.38;;;;;;;8.43;84.75;103786.88;3581869;40;20078;-64
2021/12/18 07:31:06;;;;;;;19.95;10.40;;;;;;;8.37;83.92;103777.97;3583304;40;20096;-63
2021/12/18 07:33:32;;;;;;;22.48;10.20;;;;;;;8.40;84.73;103779.75;3581153;40;20052;-64
2021/12/18 07:35:59;;;;;;;18.88;9.65;;;;;;;8.39;84.15;103788.69;3582391;40;20371;-64
2021/12/18 07:38:25;;;;;;;20.38;10.20;;;;;;;8.39;84.91;103787.81;3569954;40;20314;-63
2021/12/18 07:40:50;;;;;;;21.08;10.05;;;;;;;8.37;84.67;103782.41;3580783;40;20075;-66
2021/12/18 07:43:16;;;;;;;18.95;9.07;;;;;;;8.39;83.81;103782.44;3582585;40;20056;-64
2021/12/18 07:45:42;;;;;;;17.27;8.25;;;;;;;8.42;84.08;103786.00;3581671;40;20055;-65
2021/12/18 07:48:07;;;;;;;20.05;10.23;;;;;;;8.40;84.33;103787.78;3574805;40;20114;-65
2021/12/18 07:50:33;;;;;;;17.58;9.57;;;;;;;8.43;83.95;103790.47;3584267;40;20057;-64
2021/12/18 07:52:58;;;;;;;19.85;9.85;;;;;;;8.41;84.10;103794.97;3581601;40;20465;-64
2021/12/18 07:55:28;;;;;;;18.27;8.98;;;;;;;8.44;84.46;103791.38;3583869;40;20068;-64
2021/12/18 07:57:54;;;;;;;19.60;9.50;;;;;;;8.10;84.71;103733.44;3615463;22;20044;-65
2021/12/18 08:00:22;;;;;;;18.63;9.77;;;;;;;8.49;84.03;103800.25;3572925;40;20060;-63
2021/12/18 08:02:48;;;;;;;21.90;10.38;;;;;;;8.48;84.33;103795.81;3580030;40;20088;-63
2021/12/18 08:05:14;;;;;;;19.30;8.80;;;;;;;8.48;84.92;103796.69;3580728;40;20107;-63
2021/12/18 08:07:41;;;;;;;20.45;9.57;;;;;;;8.48;84.79;103798.50;3573505;40;20061;-63
2021/12/18 08:10:07;;;;;;;20.58;9.68;;;;;;;8.47;85.11;103800.28;3568947;40;20056;-64
2021/12/18 08:12:33;;;;;;;20.33;9.65;;;;;;;8.42;84.32;103786.00;3570091;40;20052;-63
2021/12/18 08:15:00;;;;;;;17.95;9.23;;;;;;;8.46;84.52;103792.25;3561356;40;20338;-64
2021/12/18 08:17:26;;;;;;;19.73;8.80;;;;;;;8.39;85.40;103780.66;3573695;40;20057;-63
2021/12/18 08:19:52;;;;;;;18.30;8.68;;;;;;;8.45;84.79;103802.06;3567160;40;20049;-64
2021/12/18 08:22:18;;;;;;;20.45;9.23;;;;;;;8.46;84.80;103801.16;3568576;40;20097;-64
2021/12/18 08:24:43;;;;;;;19.15;8.75;;;;;;;8.49;85.64;103800.25;3572563;40;20052;-64
2021/12/18 08:27:10;;;;;;;21.10;9.15;;;;;;;8.44;85.38;103788.69;3567986;40;20064;-66
2021/12/18 08:29:36;;;;;;;14.80;7.78;;;;;;;8.47;84.67;103796.69;3572408;40;20100;-66
2021/12/18 08:32:02;;;;;;;18.60;8.60;;;;;;;8.46;84.74;103801.16;3567695;40;20083;-66
2021/12/18 08:34:28;;;;;;;17.75;8.20;;;;;;;8.46;85.09;103803.84;3568643;40;20053;-66
2021/12/18 08:36:54;;;;;;;21.15;9.05;;;;;;;8.48;85.08;103801.16;3569272;40;20056;-66
2021/12/18 08:39:19;;;;;;;18.23;9.25;;;;;;;8.47;85.46;103786.88;3569405;40;20063;-66
2021/12/18 08:41:46;;;;;;;18.65;9.10;;;;;;;8.53;85.84;103794.91;3569726;40;20416;-65
2021/12/18 08:44:13;;;;;;;20.20;8.63;;;;;;;8.56;85.84;103793.97;3568450;40;20395;-65
2021/12/18 08:46:40;;;;;;;19.90;8.15;;;;;;;8.54;85.31;103796.66;3567252;40;20365;-65
2021/12/18 08:49:06;;;;;;;15.27;7.32;;;;;;;8.40;85.13;103771.72;3569172;40;20087;-66
2021/12/18 08:51:35;;;;;;;15.07;7.13;;;;;;;8.56;84.92;103800.25;3566564;40;20053;-65
2021/12/18 08:54:00;;;;;;;12.95;6.78;;;;;;;8.55;84.87;103797.56;3568816;40;20065;-66
2021/12/18 08:56:26;;;;;;;12.30;6.85;;;;;;;8.57;84.93;103802.00;3570083;40;20076;-65
2021/12/18 08:58:53;;;;;;;12.32;7.03;;;;;;;8.60;85.11;103795.75;3569825;40;20054;-66
2021/12/18 09:01:21;;;;;;;12.70;6.40;;;;;;;8.50;84.20;103775.22;3565992;40;20057;-65
2021/12/18 09:03:48;;;;;;;13.65;6.75;;;;;;;8.66;84.79;103800.16;3565766;40;20052;-66
2021/12/18 09:06:14;;;;;;;14.20;6.65;;;;;;;8.67;84.54;103804.66;3569331;40;20092;-66
2021/12/18 09:08:39;;;;;;;16.25;10.15;;;;;;;8.66;83.99;103794.78;3568463;40;20118;-66
2021/12/18 09:11:05;;;;;;;17.13;10.57;;;;;;;8.69;84.46;103800.13;3566347;40;20488;-66
2021/12/18 09:13:30;;;;;;;16.85;8.70;;;;;;;8.72;84.53;103800.13;3569562;40;20048;-66
2021/12/18 09:15:56;;;;;;;18.58;9.18;;;;;;;8.71;84.35;103799.25;3570742;40;20327;-65
2021/12/18 09:18:22;;;;;;;15.55;8.20;;;;;;;8.73;84.11;103801.94;3567955;40;20049;-66
2021/12/18 09:20:47;;;;;;;14.00;7.22;;;;;;;8.76;84.28;103801.91;3569578;40;20052;-66
2021/12/18 09:23:17;;;;;;;14.27;7.10;;;;;;;8.78;84.16;103797.41;3569547;40;20563;-65
2021/12/18 09:25:44;;;;;;;16.42;7.63;;;;;;;8.58;83.82;103765.38;3567635;40;20064;-66
2021/12/18 09:28:10;;;;;;;14.75;7.00;;;;;;;8.78;84.04;103797.41;3572918;40;20088;-66
2021/12/18 09:30:36;;;;;;;13.68;6.70;;;;;;;8.80;84.53;103798.28;3571282;40;20056;-66
2021/12/18 09:33:03;;;;;;;12.63;6.53;;;;;;;8.75;83.78;103789.38;3568999;40;20126;-66
2021/12/18 09:35:28;;;;;;;13.23;6.95;;;;;;;8.76;83.78;103797.44;3569492;40;20089;-66
2021/12/18 09:37:54;;;;;;;11.45;6.45;;;;;;;8.07;84.03;103690.56;3568596;40;20056;-65
2021/12/18 09:40:20;;;;;;;13.85;5.97;;;;;;;8.56;83.58;103764.47;3569946;40;20425;-66
2021/12/18 09:42:47;;;;;;;12.82;5.90;;;;;;;8.74;83.38;103795.66;3569892;40;20355;-65
2021/12/18 09:45:16;;;;;;;9.52;5.20;;;;;;;8.77;83.42;103801.00;3568665;40;20126;-65
2021/12/18 09:47:45;;;;;;;11.23;5.85;;;;;;;8.72;83.21;103802.81;3567240;40;20060;-66
2021/12/18 09:50:13;;;;;;;11.82;5.63;;;;;;;8.76;83.93;103801.91;3572495;40;20081;-66
2021/12/18 09:52:39;;;;;;;9.88;5.40;;;;;;;8.74;83.60;103787.59;3572487;40;20057;-66
2021/12/18 09:55:07;;;;;;;6.70;4.40;;;;;;;8.74;82.79;103792.97;3571587;40;20371;-66
2021/12/18 09:57:34;;;;;;;6.85;4.07;;;;;;;8.78;82.40;103789.34;3568336;40;20053;-66
2021/12/18 10:00:00;;;;;;;7.38;4.20;;;;;;;8.81;82.85;103789.34;3567568;40;20053;-66
2021/12/18 10:02:26;;;;;;;6.85;4.05;;;;;;;8.81;82.56;103790.22;3568229;40;20064;-65
2021/12/18 10:04:51;;;;;;;7.38;4.45;;;;;;;8.80;83.18;103787.56;3569575;40;20503;-66
2021/12/18 10:07:25;;;;;;;9.65;5.15;;;;;;;8.81;82.66;103790.22;3570435;40;20418;-66
2021/12/18 10:10:00;;;;;;;8.25;4.75;;;;;;;8.80;82.71;103779.53;3573859;40;20051;-66
2021/12/18 10:12:33;;;;;;;10.88;5.55;;;;;;;8.78;82.50;103773.25;3567222;40;20083;-66
2021/12/18 10:15:19;;;;;;;8.50;5.13;;;;;;;8.78;83.21;103778.63;3569499;40;20068;-66
2021/12/18 10:17:44;;;;;;;10.98;5.90;;;;;;;8.80;82.94;103776.84;3567251;40;20049;-66
2021/12/18 10:20:10;;;;;;;10.15;5.32;;;;;;;8.80;82.80;103779.53;3568162;40;20061;-66
2021/12/18 10:22:47;;;;;;;9.88;5.18;;;;;;;8.77;82.36;103771.50;3568310;40;20056;-66
2021/12/18 10:25:25;;;;;;;8.90;5.25;;;;;;;8.77;82.80;103764.34;3567281;40;20394;-65
2021/12/18 10:28:04;;;;;;;10.98;6.28;;;;;;;8.78;82.91;103770.59;3569881;40;20056;-66
2021/12/18 10:30:31;;;;;;;13.65;6.90;;;;;;;8.79;83.73;103761.66;3568039;40;20330;-65
2021/12/18 10:33:12;;;;;;;11.45;6.18;;;;;;;8.76;82.95;103761.69;3568063;40;20057;-65
2021/12/18 10:35:50;;;;;;;11.13;6.40;;;;;;;8.79;83.70;103765.22;3571956;40;20067;-65
2021/12/18 10:38:47;;;;;;;11.27;6.30;;;;;;;8.75;83.42;103755.44;3570113;40;20053;-66
2021/12/18 10:41:21;;;;;;;14.20;7.85;;;;;;;8.81;83.99;103766.09;3571560;40;21039;-66
2021/12/18 10:44:10;;;;;;;13.13;7.05;;;;;;;8.80;83.88;103758.94;3568283;40;20053;-66
2021/12/18 10:46:40;;;;;;;12.25;7.40;;;;;;;8.81;84.05;103767.88;3573572;40;20114;-67
2021/12/18 10:49:13;;;;;;;13.38;6.82;;;;;;;8.77;83.65;103750.03;3567517;40;20104;-67
2021/12/18 10:51:42;;;;;;;12.00;6.60;;;;;;;8.77;83.65;103766.13;3571206;40;20051;-67
2021/12/18 10:54:16;;;;;;;10.55;5.95;;;;;;;8.59;84.10;103725.16;3571899;40;20065;-67
2021/12/18 10:56:48;;;;;;;11.85;7.07;;;;;;;8.55;83.67;103725.16;3562265;40;20057;-67
2021/12/18 10:59:36;;;;;;;9.88;5.53;;;;;;;8.71;83.80;103755.44;3567074;40;20131;-65
2021/12/18 11:02:09;;;;;;;12.05;7.30;;;;;;;8.68;83.58;103752.78;3567019;40;20049;-66
2021/12/18 11:04:39;;;;;;;11.88;7.20;;;;;;;8.67;84.17;103759.06;3569991;40;20056;-66
2021/12/18 11:07:27;;;;;;;11.43;5.28;;;;;;;8.53;83.93;103740.34;3567191;40;20060;-66
2021/12/18 11:10:12;;;;;;;10.57;5.50;;;;;;;8.58;83.21;103760.88;3566863;40;20166;-66
2021/12/18 11:15:22;;;;;;;8.23;5.00;;;;;;;8.55;84.35;103760.00;3568529;40;20089;-66
2021/12/18 11:17:49;;;;;;;9.00;5.13;;;;;;;8.57;83.72;103756.44;3569252;40;20048;-65
2021/12/18 11:20:15;;;;;;;5.45;4.55;;;;;;;8.59;83.13;103760.00;3568729;40;20064;-65
2021/12/18 11:22:41;;;;;;;5.68;4.00;;;;;;;8.59;83.41;103754.63;3569938;40;20052;-64
2021/12/18 11:25:12;;;;;;;5.63;3.75;;;;;;;8.58;82.96;103755.53;3566662;40;20065;-65
2021/12/18 11:27:39;;;;;;;4.50;3.05;;;;;;;8.54;82.03;103744.84;3574921;40;20056;-65
2021/12/18 11:30:13;;;;;;;3.53;2.83;;;;;;;8.58;82.59;103755.53;3570067;40;20131;-67
2021/12/18 11:32:46;;;;;;;5.22;3.67;;;;;;;8.61;82.17;103746.56;3572750;40;20099;-66
2021/12/18 11:35:20;;;;;;;3.65;3.03;;;;;;;8.67;83.02;103748.31;3569560;40;20053;-66
2021/12/18 11:37:53;;;;;;;4.70;3.50;;;;;;;8.44;82.30;103703.81;3569300;40;20125;-65
2021/12/18 11:40:26;;;;;;;4.68;3.45;;;;;;;8.71;82.82;103739.34;3570035;40;20057;-65
2021/12/18 11:42:51;;;;;;;5.47;4.25;;;;;;;8.73;82.29;103742.94;3568765;40;20424;-66
2021/12/18 11:45:17;;;;;;;6.60;4.30;;;;;;;8.58;82.79;103712.63;3569254;40;20061;-66
2021/12/18 11:47:59;;;;;;;6.90;4.90;;;;;;;8.72;82.86;103741.13;3571378;40;20052;-65
2021/12/18 11:50:31;;;;;;;9.23;5.65;;;;;;;8.71;82.96;103742.03;3573444;40;20052;-65
2021/12/18 11:53:17;;;;;;;7.82;5.60;;;;;;;8.67;83.34;103740.28;3568354;40;20041;-65
2021/12/18 11:55:49;;;;;;;8.35;5.47;;;;;;;8.66;83.71;103730.44;3560498;40;20088;-65
2021/12/18 11:58:20;;;;;;;9.93;6.43;;;;;;;8.64;83.92;103727.78;3570560;40;20064;-65
2021/12/18 12:00:58;;;;;;;11.68;7.30;;;;;;;8.44;82.92;103698.44;3571219;40;20119;-65
2021/12/18 12:03:50;;;;;;;11.63;7.07;;;;;;;8.59;84.05;103714.44;3571144;40;20056;-65
2021/12/18 12:06:33;;;;;;;18.15;6.97;;;;;;;8.60;84.13;103721.56;3566795;40;20041;-65
2021/12/18 12:12:10;;;;;;;11.00;6.70;;;;;;;8.59;84.30;103713.50;3567845;40;20383;-66
2021/12/18 12:14:43;;;;;;;12.43;7.88;;;;;;;8.60;85.01;103716.19;3563554;40;20458;-66
2021/12/18 12:17:15;;;;;;;14.82;8.63;;;;;;;8.57;84.52;103713.53;3567977;40;20060;-66
2021/12/18 12:19:49;;;;;;;9.13;6.25;;;;;;;8.53;84.46;103710.88;3567780;40;20529;-66
2021/12/18 12:22:35;;;;;;;7.55;5.88;;;;;;;8.47;83.83;103702.88;3569674;40;20076;-66
2021/12/18 12:25:06;;;;;;;9.88;6.20;;;;;;;8.49;84.38;103707.31;3569649;40;20052;-66